sensor_id;sensor_type;location;lat;lon;timestamp;temperature;humidity
24254;DHT22;12381;51.152;4.172;2022-09-12T00:00:44;17.70;99.90
24254;DHT22;12381;51.152;4.172;2022-09-12T00:03:10;17.70;99.90
24254;DHT22;12381;51.152;4.172;2022-09-12T00:05:44;17.70;99.90
24254;DHT22;12381;51.152;4.172;2022-09-12T00:08:11;17.70;99.90
24254;DHT22;12381;51.152;4.172;2022-09-12T00:10:41;17.70;99.90
24254;DHT22;12381;51.152;4.172;2022-09-12T00:13:08;17.60;99.90
24254;DHT22;12381;51.152;4.172;2022-09-12T00:15:39;17.60;99.90
24254;DHT22;12381;51.152;4.172;2022-09-12T00:18:05;17.60;99.90
24254;DHT22;12381;51.152;4.172;2022-09-12T00:20:31;17.60;99.90
24254;DHT22;12381;51.152;4.172;2022-09-12T00:22:57;17.50;99.90
24254;DHT22;12381;51.152;4.172;2022-09-12T00:25:22;17.50;99.90
24254;DHT22;12381;51.152;4.172;2022-09-12T00:27:48;17.50;99.90
24254;DHT22;12381;51.152;4.172;2022-09-12T00:30:14;17.50;99.90
24254;DHT22;12381;51.152;4.172;2022-09-12T00:32:40;17.50;99.90
24254;DHT22;12381;51.152;4.172;2022-09-12T00:35:06;17.50;99.90
24254;DHT22;12381;51.152;4.172;2022-09-12T00:37:33;17.50;99.90
24254;DHT22;12381;51.152;4.172;2022-09-12T00:39:59;17.50;99.90
24254;DHT22;12381;51.152;4.172;2022-09-12T00:42:25;17.40;99.90
24254;DHT22;12381;51.152;4.172;2022-09-12T00:44:51;17.50;99.90
24254;DHT22;12381;51.152;4.172;2022-09-12T00:47:29;17.50;99.90
24254;DHT22;12381;51.152;4.172;2022-09-12T00:52:25;17.50;99.90
24254;DHT22;12381;51.152;4.172;2022-09-12T00:57:42;17.40;99.90
24254;DHT22;12381;51.152;4.172;2022-09-12T01:00:11;17.40;99.90
24254;DHT22;12381;51.152;4.172;2022-09-12T01:02:52;17.60;99.90
24254;DHT22;12381;51.152;4.172;2022-09-12T01:05:20;17.60;99.90
24254;DHT22;12381;51.152;4.172;2022-09-12T01:07:46;17.70;99.90
24254;DHT22;12381;51.152;4.172;2022-09-12T01:10:14;17.60;99.90
24254;DHT22;12381;51.152;4.172;2022-09-12T01:12:41;17.60;99.90
24254;DHT22;12381;51.152;4.172;2022-09-12T01:15:07;17.50;99.90
24254;DHT22;12381;51.152;4.172;2022-09-12T01:34:44;17.20;99.90
24254;DHT22;12381;51.152;4.172;2022-09-12T01:45:10;17.10;99.90
24254;DHT22;12381;51.152;4.172;2022-09-12T01:47:48;17.20;99.90
24254;DHT22;12381;51.152;4.172;2022-09-12T01:50:27;17.20;99.90
24254;DHT22;12381;51.152;4.172;2022-09-12T01:53:37;17.20;99.90
24254;DHT22;12381;51.152;4.172;2022-09-12T01:56:02;17.20;99.90
24254;DHT22;12381;51.152;4.172;2022-09-12T02:01:43;17.20;99.90
24254;DHT22;12381;51.152;4.172;2022-09-12T02:10:00;17.20;99.90
24254;DHT22;12381;51.152;4.172;2022-09-12T02:12:07;17.10;99.90
24254;DHT22;12381;51.152;4.172;2022-09-12T02:14:41;17.10;99.90
24254;DHT22;12381;51.152;4.172;2022-09-12T02:17:13;17.10;99.90
24254;DHT22;12381;51.152;4.172;2022-09-12T02:20:19;17.10;99.90
24254;DHT22;12381;51.152;4.172;2022-09-12T02:25:18;17.10;99.90
24254;DHT22;12381;51.152;4.172;2022-09-12T02:28:09;17.10;99.90
24254;DHT22;12381;51.152;4.172;2022-09-12T02:33:43;17.10;99.90
24254;DHT22;12381;51.152;4.172;2022-09-12T02:36:15;17.10;99.90
24254;DHT22;12381;51.152;4.172;2022-09-12T02:41:19;17.10;99.90
24254;DHT22;12381;51.152;4.172;2022-09-12T02:43:47;17.10;99.90
24254;DHT22;12381;51.152;4.172;2022-09-12T02:46:25;17.10;99.90
24254;DHT22;12381;51.152;4.172;2022-09-12T02:48:52;17.10;99.90
24254;DHT22;12381;51.152;4.172;2022-09-12T02:51:18;17.10;99.90
24254;DHT22;12381;51.152;4.172;2022-09-12T02:53:44;17.10;99.90
24254;DHT22;12381;51.152;4.172;2022-09-12T02:56:16;17.10;99.90
24254;DHT22;12381;51.152;4.172;2022-09-12T02:58:43;17.00;99.90
24254;DHT22;12381;51.152;4.172;2022-09-12T03:01:31;17.00;99.90
24254;DHT22;12381;51.152;4.172;2022-09-12T03:04:52;17.10;99.90
24254;DHT22;12381;51.152;4.172;2022-09-12T03:10:06;17.20;99.90
24254;DHT22;12381;51.152;4.172;2022-09-12T03:13:04;17.20;99.90
24254;DHT22;12381;51.152;4.172;2022-09-12T03:21:23;17.00;99.90
24254;DHT22;12381;51.152;4.172;2022-09-12T03:26:46;16.90;99.90
24254;DHT22;12381;51.152;4.172;2022-09-12T03:29:13;16.90;99.90
24254;DHT22;12381;51.152;4.172;2022-09-12T03:31:51;16.90;99.90
24254;DHT22;12381;51.152;4.172;2022-09-12T03:34:17;16.80;99.90
24254;DHT22;12381;51.152;4.172;2022-09-12T03:36:43;16.80;99.90
24254;DHT22;12381;51.152;4.172;2022-09-12T03:39:08;16.80;99.90
24254;DHT22;12381;51.152;4.172;2022-09-12T03:41:34;16.90;99.90
24254;DHT22;12381;51.152;4.172;2022-09-12T03:44:01;16.90;99.90
24254;DHT22;12381;51.152;4.172;2022-09-12T03:46:27;16.90;99.90
24254;DHT22;12381;51.152;4.172;2022-09-12T03:48:52;17.00;99.90
24254;DHT22;12381;51.152;4.172;2022-09-12T03:51:18;16.90;99.90
24254;DHT22;12381;51.152;4.172;2022-09-12T03:53:43;16.80;99.90
24254;DHT22;12381;51.152;4.172;2022-09-12T03:56:10;16.80;99.90
24254;DHT22;12381;51.152;4.172;2022-09-12T03:58:36;16.70;99.90
24254;DHT22;12381;51.152;4.172;2022-09-12T04:01:14;16.70;99.90
24254;DHT22;12381;51.152;4.172;2022-09-12T04:03:41;16.70;99.90
24254;DHT22;12381;51.152;4.172;2022-09-12T04:06:08;16.80;99.90
24254;DHT22;12381;51.152;4.172;2022-09-12T04:08:35;16.80;99.90
24254;DHT22;12381;51.152;4.172;2022-09-12T04:11:06;16.70;99.90
24254;DHT22;12381;51.152;4.172;2022-09-12T04:13:34;16.80;99.90
24254;DHT22;12381;51.152;4.172;2022-09-12T04:16:00;16.70;99.90
24254;DHT22;12381;51.152;4.172;2022-09-12T04:18:26;16.80;99.90
24254;DHT22;12381;51.152;4.172;2022-09-12T04:20:52;16.70;99.90
24254;DHT22;12381;51.152;4.172;2022-09-12T04:23:18;16.80;99.90
24254;DHT22;12381;51.152;4.172;2022-09-12T04:25:53;16.60;99.90
24254;DHT22;12381;51.152;4.172;2022-09-12T04:28:18;16.70;99.90
24254;DHT22;12381;51.152;4.172;2022-09-12T04:30:44;16.70;99.90
24254;DHT22;12381;51.152;4.172;2022-09-12T04:33:09;16.70;99.90
24254;DHT22;12381;51.152;4.172;2022-09-12T04:35:35;16.70;99.90
24254;DHT22;12381;51.152;4.172;2022-09-12T04:38:01;16.60;99.90
24254;DHT22;12381;51.152;4.172;2022-09-12T04:40:29;16.60;99.90
24254;DHT22;12381;51.152;4.172;2022-09-12T04:42:55;16.60;99.90
24254;DHT22;12381;51.152;4.172;2022-09-12T04:45:21;16.60;99.90
24254;DHT22;12381;51.152;4.172;2022-09-12T04:47:47;16.60;99.90
24254;DHT22;12381;51.152;4.172;2022-09-12T04:50:12;16.60;99.90
24254;DHT22;12381;51.152;4.172;2022-09-12T04:52:39;16.60;99.90
24254;DHT22;12381;51.152;4.172;2022-09-12T04:55:06;16.60;99.90
24254;DHT22;12381;51.152;4.172;2022-09-12T04:57:32;16.50;99.90
24254;DHT22;12381;51.152;4.172;2022-09-12T04:59:58;16.50;99.90
24254;DHT22;12381;51.152;4.172;2022-09-12T05:02:24;16.50;99.90
24254;DHT22;12381;51.152;4.172;2022-09-12T05:04:50;16.60;99.90
24254;DHT22;12381;51.152;4.172;2022-09-12T05:07:19;16.60;99.90
24254;DHT22;12381;51.152;4.172;2022-09-12T05:09:45;16.50;99.90
24254;DHT22;12381;51.152;4.172;2022-09-12T05:12:11;16.50;99.90
24254;DHT22;12381;51.152;4.172;2022-09-12T05:14:36;16.50;99.90
24254;DHT22;12381;51.152;4.172;2022-09-12T05:17:03;16.40;99.90
24254;DHT22;12381;51.152;4.172;2022-09-12T05:19:30;16.40;99.90
24254;DHT22;12381;51.152;4.172;2022-09-12T05:21:56;16.40;99.90
24254;DHT22;12381;51.152;4.172;2022-09-12T05:24:22;16.40;99.90
24254;DHT22;12381;51.152;4.172;2022-09-12T05:26:48;16.50;99.90
24254;DHT22;12381;51.152;4.172;2022-09-12T05:29:14;16.60;99.90
24254;DHT22;12381;51.152;4.172;2022-09-12T05:31:40;16.60;99.90
24254;DHT22;12381;51.152;4.172;2022-09-12T05:34:07;16.60;99.90
24254;DHT22;12381;51.152;4.172;2022-09-12T05:36:35;16.50;99.90
24254;DHT22;12381;51.152;4.172;2022-09-12T05:39:02;16.40;99.90
24254;DHT22;12381;51.152;4.172;2022-09-12T05:41:30;16.40;99.90
24254;DHT22;12381;51.152;4.172;2022-09-12T05:46:34;16.50;99.90
24254;DHT22;12381;51.152;4.172;2022-09-12T05:49:05;16.60;99.90
24254;DHT22;12381;51.152;4.172;2022-09-12T05:51:33;16.60;99.90
24254;DHT22;12381;51.152;4.172;2022-09-12T05:54:01;16.50;99.90
24254;DHT22;12381;51.152;4.172;2022-09-12T05:56:29;16.50;99.90
24254;DHT22;12381;51.152;4.172;2022-09-12T05:58:58;16.50;99.90
24254;DHT22;12381;51.152;4.172;2022-09-12T06:01:24;16.50;99.90
24254;DHT22;12381;51.152;4.172;2022-09-12T06:03:53;16.60;99.90
24254;DHT22;12381;51.152;4.172;2022-09-12T06:06:21;16.50;99.90
24254;DHT22;12381;51.152;4.172;2022-09-12T06:08:49;16.60;99.90
24254;DHT22;12381;51.152;4.172;2022-09-12T06:11:18;16.60;99.90
24254;DHT22;12381;51.152;4.172;2022-09-12T06:13:44;16.60;99.90
24254;DHT22;12381;51.152;4.172;2022-09-12T06:16:16;16.50;99.90
24254;DHT22;12381;51.152;4.172;2022-09-12T06:18:47;16.40;99.90
24254;DHT22;12381;51.152;4.172;2022-09-12T06:21:13;16.40;99.90
24254;DHT22;12381;51.152;4.172;2022-09-12T06:23:39;16.40;99.90
24254;DHT22;12381;51.152;4.172;2022-09-12T06:26:08;16.40;99.90
24254;DHT22;12381;51.152;4.172;2022-09-12T06:28:36;16.50;99.90
24254;DHT22;12381;51.152;4.172;2022-09-12T06:31:05;16.40;99.90
24254;DHT22;12381;51.152;4.172;2022-09-12T06:33:33;16.60;99.90
24254;DHT22;12381;51.152;4.172;2022-09-12T06:36:03;16.60;99.90
24254;DHT22;12381;51.152;4.172;2022-09-12T06:38:29;16.60;99.90
24254;DHT22;12381;51.152;4.172;2022-09-12T06:40:56;16.60;99.90
24254;DHT22;12381;51.152;4.172;2022-09-12T06:45:54;16.70;99.90
24254;DHT22;12381;51.152;4.172;2022-09-12T06:48:20;16.70;99.90
24254;DHT22;12381;51.152;4.172;2022-09-12T06:50:56;16.80;99.90
24254;DHT22;12381;51.152;4.172;2022-09-12T06:53:23;16.80;99.90
24254;DHT22;12381;51.152;4.172;2022-09-12T06:55:58;16.90;99.90
24254;DHT22;12381;51.152;4.172;2022-09-12T06:58:26;17.00;99.90
24254;DHT22;12381;51.152;4.172;2022-09-12T07:00:51;17.00;99.90
24254;DHT22;12381;51.152;4.172;2022-09-12T07:03:17;17.00;99.90
24254;DHT22;12381;51.152;4.172;2022-09-12T07:05:44;17.10;99.90
24254;DHT22;12381;51.152;4.172;2022-09-12T07:08:10;17.20;99.90
24254;DHT22;12381;51.152;4.172;2022-09-12T07:10:36;17.20;99.90
24254;DHT22;12381;51.152;4.172;2022-09-12T07:13:01;17.30;99.90
24254;DHT22;12381;51.152;4.172;2022-09-12T07:15:27;17.30;99.90
24254;DHT22;12381;51.152;4.172;2022-09-12T07:17:53;17.40;99.90
24254;DHT22;12381;51.152;4.172;2022-09-12T07:20:19;17.50;99.90
24254;DHT22;12381;51.152;4.172;2022-09-12T07:22:44;17.50;99.90
24254;DHT22;12381;51.152;4.172;2022-09-12T07:25:11;17.60;99.90
24254;DHT22;12381;51.152;4.172;2022-09-12T07:27:36;17.60;99.90
24254;DHT22;12381;51.152;4.172;2022-09-12T07:30:04;17.60;99.90
24254;DHT22;12381;51.152;4.172;2022-09-12T07:32:32;17.70;99.90
24254;DHT22;12381;51.152;4.172;2022-09-12T07:34:58;17.70;99.90
24254;DHT22;12381;51.152;4.172;2022-09-12T07:37:23;17.80;99.90
24254;DHT22;12381;51.152;4.172;2022-09-12T07:39:49;17.80;99.90
24254;DHT22;12381;51.152;4.172;2022-09-12T07:42:14;17.90;99.90
24254;DHT22;12381;51.152;4.172;2022-09-12T07:44:41;17.90;99.90
24254;DHT22;12381;51.152;4.172;2022-09-12T07:47:07;17.90;99.90
24254;DHT22;12381;51.152;4.172;2022-09-12T07:49:32;18.00;99.90
24254;DHT22;12381;51.152;4.172;2022-09-12T07:51:58;18.00;99.90
24254;DHT22;12381;51.152;4.172;2022-09-12T07:54:24;18.10;99.90
24254;DHT22;12381;51.152;4.172;2022-09-12T07:56:50;18.20;99.90
24254;DHT22;12381;51.152;4.172;2022-09-12T08:01:47;18.20;99.90
24254;DHT22;12381;51.152;4.172;2022-09-12T08:11:02;18.40;99.90
24254;DHT22;12381;51.152;4.172;2022-09-12T08:13:29;18.50;99.90
24254;DHT22;12381;51.152;4.172;2022-09-12T08:15:59;18.50;99.90
24254;DHT22;12381;51.152;4.172;2022-09-12T08:18:26;18.50;99.90
24254;DHT22;12381;51.152;4.172;2022-09-12T08:20:57;18.50;99.90
24254;DHT22;12381;51.152;4.172;2022-09-12T08:23:23;18.60;99.90
24254;DHT22;12381;51.152;4.172;2022-09-12T08:25:50;18.60;99.90
24254;DHT22;12381;51.152;4.172;2022-09-12T08:28:15;18.70;99.90
24254;DHT22;12381;51.152;4.172;2022-09-12T08:30:41;18.70;99.90
24254;DHT22;12381;51.152;4.172;2022-09-12T08:33:06;18.70;99.90
24254;DHT22;12381;51.152;4.172;2022-09-12T08:35:32;18.70;99.90
24254;DHT22;12381;51.152;4.172;2022-09-12T08:37:58;18.90;99.90
24254;DHT22;12381;51.152;4.172;2022-09-12T08:40:24;18.90;99.90
24254;DHT22;12381;51.152;4.172;2022-09-12T08:43:14;18.90;99.90
24254;DHT22;12381;51.152;4.172;2022-09-12T08:46:01;19.00;99.90
24254;DHT22;12381;51.152;4.172;2022-09-12T08:48:29;19.00;99.90
24254;DHT22;12381;51.152;4.172;2022-09-12T08:53:27;19.10;99.90
24254;DHT22;12381;51.152;4.172;2022-09-12T08:55:58;19.20;99.90
24254;DHT22;12381;51.152;4.172;2022-09-12T08:58:26;19.10;99.90
24254;DHT22;12381;51.152;4.172;2022-09-12T09:10:01;19.50;99.90
24254;DHT22;12381;51.152;4.172;2022-09-12T09:18:40;19.70;99.90
24254;DHT22;12381;51.152;4.172;2022-09-12T09:20:55;19.80;99.90
24254;DHT22;12381;51.152;4.172;2022-09-12T09:26:20;19.90;99.90
24254;DHT22;12381;51.152;4.172;2022-09-12T09:29:19;20.00;99.90
24254;DHT22;12381;51.152;4.172;2022-09-12T09:31:51;20.10;99.90
24254;DHT22;12381;51.152;4.172;2022-09-12T09:34:22;20.20;99.90
24254;DHT22;12381;51.152;4.172;2022-09-12T09:44:59;20.60;99.90
24254;DHT22;12381;51.152;4.172;2022-09-12T09:47:27;20.70;99.90
24254;DHT22;12381;51.152;4.172;2022-09-12T09:49:53;20.80;99.90
24254;DHT22;12381;51.152;4.172;2022-09-12T09:52:24;20.90;99.90
24254;DHT22;12381;51.152;4.172;2022-09-12T09:55:17;21.10;99.90
24254;DHT22;12381;51.152;4.172;2022-09-12T09:57:46;21.20;99.90
24254;DHT22;12381;51.152;4.172;2022-09-12T10:00:36;21.40;99.90
24254;DHT22;12381;51.152;4.172;2022-09-12T10:03:19;21.60;99.90
24254;DHT22;12381;51.152;4.172;2022-09-12T10:05:51;21.70;99.90
24254;DHT22;12381;51.152;4.172;2022-09-12T10:08:27;22.00;99.90
24254;DHT22;12381;51.152;4.172;2022-09-12T10:11:08;22.10;99.90
24254;DHT22;12381;51.152;4.172;2022-09-12T10:16:27;22.40;99.90
24254;DHT22;12381;51.152;4.172;2022-09-12T10:18:58;22.70;99.90
24254;DHT22;12381;51.152;4.172;2022-09-12T10:21:34;22.80;99.90
24254;DHT22;12381;51.152;4.172;2022-09-12T10:24:20;23.00;99.90
24254;DHT22;12381;51.152;4.172;2022-09-12T10:29:52;23.30;99.90
24254;DHT22;12381;51.152;4.172;2022-09-12T10:32:26;23.50;99.90
24254;DHT22;12381;51.152;4.172;2022-09-12T10:35:17;23.70;99.90
24254;DHT22;12381;51.152;4.172;2022-09-12T10:40:53;24.10;99.90
24254;DHT22;12381;51.152;4.172;2022-09-12T10:45:58;24.20;99.90
24254;DHT22;12381;51.152;4.172;2022-09-12T10:48:36;24.40;99.90
24254;DHT22;12381;51.152;4.172;2022-09-12T10:51:01;24.40;99.90
24254;DHT22;12381;51.152;4.172;2022-09-12T10:53:31;24.70;99.90
24254;DHT22;12381;51.152;4.172;2022-09-12T10:56:14;24.90;99.90
24254;DHT22;12381;51.152;4.172;2022-09-12T10:59:06;25.00;99.90
24254;DHT22;12381;51.152;4.172;2022-09-12T11:18:02;25.50;99.90
24254;DHT22;12381;51.152;4.172;2022-09-12T11:25:55;25.70;99.90
24254;DHT22;12381;51.152;4.172;2022-09-12T11:31:11;26.10;99.90
24254;DHT22;12381;51.152;4.172;2022-09-12T11:36:15;26.00;99.90
24254;DHT22;12381;51.152;4.172;2022-09-12T11:38:55;26.00;99.90
24254;DHT22;12381;51.152;4.172;2022-09-12T11:41:33;26.20;99.90
24254;DHT22;12381;51.152;4.172;2022-09-12T11:46:48;26.20;99.90
24254;DHT22;12381;51.152;4.172;2022-09-12T11:49:23;26.30;99.90
24254;DHT22;12381;51.152;4.172;2022-09-12T11:59:56;26.30;99.90
24254;DHT22;12381;51.152;4.172;2022-09-12T12:02:28;26.40;99.90
24254;DHT22;12381;51.152;4.172;2022-09-12T12:05:28;26.30;99.90
24254;DHT22;12381;51.152;4.172;2022-09-12T12:07:59;26.30;99.90
24254;DHT22;12381;51.152;4.172;2022-09-12T12:12:58;26.30;99.90
24254;DHT22;12381;51.152;4.172;2022-09-12T12:15:29;26.20;99.90
24254;DHT22;12381;51.152;4.172;2022-09-12T12:18:44;26.30;99.90
24254;DHT22;12381;51.152;4.172;2022-09-12T12:20:52;26.30;99.90
24254;DHT22;12381;51.152;4.172;2022-09-12T12:23:33;26.40;99.90
24254;DHT22;12381;51.152;4.172;2022-09-12T12:26:01;26.30;99.90
24254;DHT22;12381;51.152;4.172;2022-09-12T12:31:15;26.50;99.90
24254;DHT22;12381;51.152;4.172;2022-09-12T12:36:37;26.40;99.90
24254;DHT22;12381;51.152;4.172;2022-09-12T12:42:02;26.30;99.90
24254;DHT22;12381;51.152;4.172;2022-09-12T12:44:49;26.20;99.90
24254;DHT22;12381;51.152;4.172;2022-09-12T12:47:20;26.10;99.90
24254;DHT22;12381;51.152;4.172;2022-09-12T12:50:11;26.10;99.90
24254;DHT22;12381;51.152;4.172;2022-09-12T12:53:02;26.30;99.90
24254;DHT22;12381;51.152;4.172;2022-09-12T12:58:17;26.10;99.90
24254;DHT22;12381;51.152;4.172;2022-09-12T13:01:38;25.90;99.90
24254;DHT22;12381;51.152;4.172;2022-09-12T13:04:02;25.70;99.90
24254;DHT22;12381;51.152;4.172;2022-09-12T13:06:40;25.60;99.90
24254;DHT22;12381;51.152;4.172;2022-09-12T13:09:18;25.70;99.90
24254;DHT22;12381;51.152;4.172;2022-09-12T13:11:46;25.80;99.90
24254;DHT22;12381;51.152;4.172;2022-09-12T13:14:50;25.70;99.90
24254;DHT22;12381;51.152;4.172;2022-09-12T13:20:21;25.70;99.90
24254;DHT22;12381;51.152;4.172;2022-09-12T13:22:50;25.80;99.90
24254;DHT22;12381;51.152;4.172;2022-09-12T13:25:27;25.80;99.90
24254;DHT22;12381;51.152;4.172;2022-09-12T13:30:23;25.80;99.90
24254;DHT22;12381;51.152;4.172;2022-09-12T13:32:48;25.70;99.90
24254;DHT22;12381;51.152;4.172;2022-09-12T13:35:39;25.70;99.90
24254;DHT22;12381;51.152;4.172;2022-09-12T13:40:55;25.70;99.90
24254;DHT22;12381;51.152;4.172;2022-09-12T13:43:41;25.70;99.90
24254;DHT22;12381;51.152;4.172;2022-09-12T13:46:08;25.80;99.90
24254;DHT22;12381;51.152;4.172;2022-09-12T13:48:38;25.80;99.90
24254;DHT22;12381;51.152;4.172;2022-09-12T13:51:04;25.80;99.90
24254;DHT22;12381;51.152;4.172;2022-09-12T13:53:43;25.80;99.90
24254;DHT22;12381;51.152;4.172;2022-09-12T13:56:18;25.80;99.90
24254;DHT22;12381;51.152;4.172;2022-09-12T13:59:10;25.80;99.90
24254;DHT22;12381;51.152;4.172;2022-09-12T14:01:39;25.90;99.90
24254;DHT22;12381;51.152;4.172;2022-09-12T14:06:52;25.80;99.90
24254;DHT22;12381;51.152;4.172;2022-09-12T14:09:26;25.90;99.90
24254;DHT22;12381;51.152;4.172;2022-09-12T14:11:54;25.90;99.90
24254;DHT22;12381;51.152;4.172;2022-09-12T14:14:37;26.00;99.90
24254;DHT22;12381;51.152;4.172;2022-09-12T14:17:39;26.00;99.90
24254;DHT22;12381;51.152;4.172;2022-09-12T14:20:07;25.90;99.90
24254;DHT22;12381;51.152;4.172;2022-09-12T14:22:39;25.80;99.90
24254;DHT22;12381;51.152;4.172;2022-09-12T14:25:09;25.90;99.90
24254;DHT22;12381;51.152;4.172;2022-09-12T14:27:43;25.90;99.90
24254;DHT22;12381;51.152;4.172;2022-09-12T14:35:30;26.20;99.90
24254;DHT22;12381;51.152;4.172;2022-09-12T14:38:06;26.10;99.90
24254;DHT22;12381;51.152;4.172;2022-09-12T14:40:40;26.10;99.90
24254;DHT22;12381;51.152;4.172;2022-09-12T14:51:34;26.10;99.90
24254;DHT22;12381;51.152;4.172;2022-09-12T14:54:01;26.10;99.90
24254;DHT22;12381;51.152;4.172;2022-09-12T14:56:38;26.10;99.90
24254;DHT22;12381;51.152;4.172;2022-09-12T15:05:16;26.20;99.90
24254;DHT22;12381;51.152;4.172;2022-09-12T15:12:47;26.30;99.90
24254;DHT22;12381;51.152;4.172;2022-09-12T15:15:19;26.20;99.90
24254;DHT22;12381;51.152;4.172;2022-09-12T15:17:45;26.10;99.90
24254;DHT22;12381;51.152;4.172;2022-09-12T15:20:12;25.90;99.90
24254;DHT22;12381;51.152;4.172;2022-09-12T15:22:40;25.80;99.90
24254;DHT22;12381;51.152;4.172;2022-09-12T15:25:06;25.80;99.90
24254;DHT22;12381;51.152;4.172;2022-09-12T15:27:32;25.70;99.90
24254;DHT22;12381;51.152;4.172;2022-09-12T15:29:58;25.70;99.90
24254;DHT22;12381;51.152;4.172;2022-09-12T15:32:28;25.70;99.90
24254;DHT22;12381;51.152;4.172;2022-09-12T15:34:54;25.60;99.90
24254;DHT22;12381;51.152;4.172;2022-09-12T15:37:22;25.50;99.90
24254;DHT22;12381;51.152;4.172;2022-09-12T15:39:49;25.40;99.90
24254;DHT22;12381;51.152;4.172;2022-09-12T15:42:16;25.30;99.90
24254;DHT22;12381;51.152;4.172;2022-09-12T15:44:42;25.30;99.90
24254;DHT22;12381;51.152;4.172;2022-09-12T15:47:11;25.40;99.90
24254;DHT22;12381;51.152;4.172;2022-09-12T15:49:38;25.40;99.90
24254;DHT22;12381;51.152;4.172;2022-09-12T15:52:03;25.40;99.90
24254;DHT22;12381;51.152;4.172;2022-09-12T15:54:29;25.50;99.90
24254;DHT22;12381;51.152;4.172;2022-09-12T15:56:55;25.50;99.90
24254;DHT22;12381;51.152;4.172;2022-09-12T15:59:20;25.30;99.90
24254;DHT22;12381;51.152;4.172;2022-09-12T16:01:46;25.30;99.90
24254;DHT22;12381;51.152;4.172;2022-09-12T16:04:39;25.20;99.90
24254;DHT22;12381;51.152;4.172;2022-09-12T16:07:07;25.10;99.90
24254;DHT22;12381;51.152;4.172;2022-09-12T16:09:34;25.10;99.90
24254;DHT22;12381;51.152;4.172;2022-09-12T16:11:59;25.00;99.90
24254;DHT22;12381;51.152;4.172;2022-09-12T16:14:25;24.90;99.90
24254;DHT22;12381;51.152;4.172;2022-09-12T16:16:52;24.90;99.90
24254;DHT22;12381;51.152;4.172;2022-09-12T16:19:18;24.80;99.90
24254;DHT22;12381;51.152;4.172;2022-09-12T16:21:44;24.90;99.90
24254;DHT22;12381;51.152;4.172;2022-09-12T16:24:09;24.80;99.90
24254;DHT22;12381;51.152;4.172;2022-09-12T16:26:38;24.80;99.90
24254;DHT22;12381;51.152;4.172;2022-09-12T16:29:04;24.80;99.90
24254;DHT22;12381;51.152;4.172;2022-09-12T16:31:30;24.80;99.90
24254;DHT22;12381;51.152;4.172;2022-09-12T16:33:55;24.80;99.90
24254;DHT22;12381;51.152;4.172;2022-09-12T16:36:22;24.80;99.90
24254;DHT22;12381;51.152;4.172;2022-09-12T16:38:49;24.70;99.90
24254;DHT22;12381;51.152;4.172;2022-09-12T16:41:17;24.70;99.90
24254;DHT22;12381;51.152;4.172;2022-09-12T16:43:43;24.70;99.90
24254;DHT22;12381;51.152;4.172;2022-09-12T16:46:12;24.60;99.90
24254;DHT22;12381;51.152;4.172;2022-09-12T16:48:42;24.60;99.90
24254;DHT22;12381;51.152;4.172;2022-09-12T16:51:14;24.60;99.90
24254;DHT22;12381;51.152;4.172;2022-09-12T16:53:40;24.50;99.90
24254;DHT22;12381;51.152;4.172;2022-09-12T16:56:07;24.50;99.90
24254;DHT22;12381;51.152;4.172;2022-09-12T16:58:37;24.50;99.90
24254;DHT22;12381;51.152;4.172;2022-09-12T17:01:06;24.40;99.90
24254;DHT22;12381;51.152;4.172;2022-09-12T17:03:33;24.40;99.90
24254;DHT22;12381;51.152;4.172;2022-09-12T17:06:11;24.40;99.90
24254;DHT22;12381;51.152;4.172;2022-09-12T17:08:40;24.40;99.90
24254;DHT22;12381;51.152;4.172;2022-09-12T17:11:29;24.30;99.90
24254;DHT22;12381;51.152;4.172;2022-09-12T17:13:56;24.30;99.90
24254;DHT22;12381;51.152;4.172;2022-09-12T17:16:22;24.20;99.90
24254;DHT22;12381;51.152;4.172;2022-09-12T17:18:48;24.20;99.90
24254;DHT22;12381;51.152;4.172;2022-09-12T17:21:15;24.10;99.90
24254;DHT22;12381;51.152;4.172;2022-09-12T17:23:41;24.10;99.90
24254;DHT22;12381;51.152;4.172;2022-09-12T17:26:08;24.00;99.90
24254;DHT22;12381;51.152;4.172;2022-09-12T17:28:36;24.00;99.90
24254;DHT22;12381;51.152;4.172;2022-09-12T17:31:04;23.90;99.90
24254;DHT22;12381;51.152;4.172;2022-09-12T17:33:30;23.90;99.90
24254;DHT22;12381;51.152;4.172;2022-09-12T17:36:05;23.80;99.90
24254;DHT22;12381;51.152;4.172;2022-09-12T17:38:32;23.80;99.90
24254;DHT22;12381;51.152;4.172;2022-09-12T17:41:16;23.70;99.90
24254;DHT22;12381;51.152;4.172;2022-09-12T17:43:50;23.70;99.90
24254;DHT22;12381;51.152;4.172;2022-09-12T17:46:20;23.60;99.90
24254;DHT22;12381;51.152;4.172;2022-09-12T17:48:54;23.60;99.90
24254;DHT22;12381;51.152;4.172;2022-09-12T17:51:21;23.50;99.90
24254;DHT22;12381;51.152;4.172;2022-09-12T17:53:54;23.50;99.90
24254;DHT22;12381;51.152;4.172;2022-09-12T17:56:19;23.40;99.90
24254;DHT22;12381;51.152;4.172;2022-09-12T17:58:45;23.40;99.90
24254;DHT22;12381;51.152;4.172;2022-09-12T18:01:12;23.40;99.90
24254;DHT22;12381;51.152;4.172;2022-09-12T18:03:58;23.30;99.90
24254;DHT22;12381;51.152;4.172;2022-09-12T18:06:28;23.30;99.90
24254;DHT22;12381;51.152;4.172;2022-09-12T18:08:57;23.20;99.90
24254;DHT22;12381;51.152;4.172;2022-09-12T18:11:23;23.10;99.90
24254;DHT22;12381;51.152;4.172;2022-09-12T18:13:49;23.00;99.90
24254;DHT22;12381;51.152;4.172;2022-09-12T18:16:14;23.00;99.90
24254;DHT22;12381;51.152;4.172;2022-09-12T18:18:40;23.00;99.90
24254;DHT22;12381;51.152;4.172;2022-09-12T18:21:07;23.00;99.90
24254;DHT22;12381;51.152;4.172;2022-09-12T18:23:34;22.80;99.90
24254;DHT22;12381;51.152;4.172;2022-09-12T18:26:02;22.70;99.90
24254;DHT22;12381;51.152;4.172;2022-09-12T18:28:34;22.70;99.90
24254;DHT22;12381;51.152;4.172;2022-09-12T18:31:00;22.60;99.90
24254;DHT22;12381;51.152;4.172;2022-09-12T18:33:26;22.60;99.90
24254;DHT22;12381;51.152;4.172;2022-09-12T18:35:51;22.70;99.90
24254;DHT22;12381;51.152;4.172;2022-09-12T18:38:20;22.60;99.90
24254;DHT22;12381;51.152;4.172;2022-09-12T18:40:45;22.50;99.90
24254;DHT22;12381;51.152;4.172;2022-09-12T18:43:11;22.40;99.90
24254;DHT22;12381;51.152;4.172;2022-09-12T18:45:39;22.30;99.90
24254;DHT22;12381;51.152;4.172;2022-09-12T18:48:04;22.30;99.90
24254;DHT22;12381;51.152;4.172;2022-09-12T18:50:31;22.30;99.90
24254;DHT22;12381;51.152;4.172;2022-09-12T18:52:57;22.30;99.90
24254;DHT22;12381;51.152;4.172;2022-09-12T18:55:22;22.20;99.90
24254;DHT22;12381;51.152;4.172;2022-09-12T18:57:48;22.20;99.90
24254;DHT22;12381;51.152;4.172;2022-09-12T19:00:15;22.20;99.90
24254;DHT22;12381;51.152;4.172;2022-09-12T19:02:41;22.10;99.90
24254;DHT22;12381;51.152;4.172;2022-09-12T19:05:07;22.20;99.90
24254;DHT22;12381;51.152;4.172;2022-09-12T19:07:33;22.20;99.90
24254;DHT22;12381;51.152;4.172;2022-09-12T19:09:59;22.10;99.90